Disclaimer

Please do not use the information listed here in-flight or in-navigation, as they are not provided to us by the airports but are provided by volunteers, so they might be outdated.

Search


Regions


Airport information page

Radio informations:
Tower (TWR) - 120.025 MHz
INFO - 122.7 MHz
Ground (GND) - 121.6 MHz
BERLIN DIRECTOR - 136.1 MHz
BERLIN DEP - 120.625 MHz
Automatic Terminal Information Service (ATIS) - 124.95 MHz
BERLIN ARR - 119.625 MHz
BERLIN INFO - 132.65 MHz

Airport informations:
Latitude: 52° 22' 48.00" N
Longitude: 013° 31' 21.00" E
Elevation: 157 feet - 48 meters
Operating hours: N/A
Operating agency: Civil government, landing fees and diplomatic clearance may be required
Timezone: UTC+1(+2DT) - Last Sunday in March to last Sunday in October
Fuel: Unknown fuel type or whether there is any fuel.

Runway information:
07R/25L - 9843 x 148 feet< - >3000 x 45 meters
07L/25R - 8891 x 148 feet< - >2710 x 45 meters

Recent METARs:
EDDB 210620Z 09010KT 9999 BKN019 01/M03 Q1020 NOSIG
EDDB 210650Z 08010KT 9999 BKN019 01/M03 Q1020 NOSIG
EDDB 210720Z 08011KT 9999 BKN018 01/M02 Q1021 NOSIG

Airport on the map: